Okha, Russia
Current Conditions -  °F | °C
As of 12:30 PM on Tuesday 25 Nov 2014 (Local Time) from UHSS Reporting Station
Scattered Clouds Scattered Clouds  
Wind Chill: 24°   Ceiling: Unl
Heat Index: 30°   Visibility: 6mi
Dew Point: 18°   Wind: 7mph
Humidity: 60%   Direction: 30°NNE
Pressure: 30.12"   Gusts: NA
Location:  53.57°N, 142.95°E
Report Text: UHSS 250130Z 03003MPS 9999 SCT040 M01/M08 Q1020 NOSIG RMKQFE763/1018 01CLRD65
Loading
Personal Weather Stations






























Interactive Weather Map New forecast layout! Learn more

10-Day Weather Forecast

Advertisements
Track Severe Weather on mobile